Time;durP1;ratioP1;P1;durP2;ratioP2;P2;SDS_P1;SDS_P2;PMS_P1;PMS_P2;Temp;Humidity;BMP_temperature;BMP_pressure;BME280_temperature;BME280_humidity;BME280_pressure;Samples;Min_cycle;Max_cycle;Signal;HPM_P1;HPM_P2
2021/04/25 00:01:17;;;;;;;7.83;3.13;;;;;;;4.66;64.31;101775.28;5088731;28;20224;-80
2021/04/25 00:03:43;;;;;;;4.23;2.67;;;;;;;4.63;64.14;101770.09;5085470;28;20254;-81
2021/04/25 00:06:10;;;;;;;7.80;3.03;;;;;;;4.58;64.17;101765.81;5087782;28;20255;-82
2021/04/25 00:08:36;;;;;;;4.87;2.77;;;;;;;4.52;63.77;101762.41;5093528;28;20220;-82
2021/04/25 00:11:03;;;;;;;6.87;2.67;;;;;;;4.48;64.73;101770.41;5091003;28;20231;-82
2021/04/25 00:13:30;;;;;;;8.17;3.23;;;;;;;4.44;64.18;101763.47;5097060;28;20204;-80
2021/04/25 00:15:57;;;;;;;8.13;3.73;;;;;;;4.39;64.47;101763.56;5088633;28;20204;-82
2021/04/25 00:18:23;;;;;;;6.77;3.00;;;;;;;4.35;65.01;101767.16;5094492;28;20704;-79
2021/04/25 00:20:49;;;;;;;10.77;3.33;;;;;;;4.32;65.36;101764.56;5084829;28;20230;-81
2021/04/25 00:23:15;;;;;;;8.93;3.10;;;;;;;4.28;65.29;101762.91;5091000;28;21349;-80
2021/04/25 00:25:41;;;;;;;7.83;3.47;;;;;;;4.24;65.03;101755.09;5093579;28;20578;-81
2021/04/25 00:28:07;;;;;;;5.87;3.30;;;;;;;4.21;65.79;101765.69;5089647;28;20224;-82
2021/04/25 00:30:34;;;;;;;7.20;3.40;;;;;;;4.16;65.99;101758.72;5093670;28;20223;-81
2021/04/25 00:33:01;;;;;;;7.77;3.37;;;;;;;4.13;65.71;101758.78;5091761;28;20201;-81
2021/04/25 00:35:27;;;;;;;6.87;3.07;;;;;;;4.10;65.60;101758.88;5094013;28;20204;-81
2021/04/25 00:37:53;;;;;;;7.30;3.17;;;;;;;4.08;66.13;101751.88;5090723;28;20203;-80
2021/04/25 00:40:20;;;;;;;6.77;3.90;;;;;;;4.03;66.53;101751.97;5086225;28;20262;-78
2021/04/25 00:42:46;;;;;;;11.33;3.20;;;;;;;3.99;66.09;101749.41;5086540;28;20661;-78
2021/04/25 00:45:15;;;;;;;6.67;3.30;;;;;;;3.96;66.13;101754.72;5084509;28;20196;-79
2021/04/25 00:47:43;;;;;;;6.80;3.30;;;;;;;3.92;66.58;101753.94;5086139;28;20228;-79
2021/04/25 00:50:10;;;;;;;10.47;4.00;;;;;;;3.89;66.68;101754.00;5096850;28;20586;-79
2021/04/25 00:52:39;;;;;;;7.97;3.30;;;;;;;3.86;66.55;101743.50;5079840;28;20201;-81
2021/04/25 00:55:06;;;;;;;7.27;2.80;;;;;;;3.84;67.39;101745.28;5090589;28;20200;-80
2021/04/25 00:57:32;;;;;;;8.93;3.37;;;;;;;3.81;67.41;101745.34;5093464;28;20208;-81
2021/04/25 00:59:59;;;;;;;9.43;3.30;;;;;;;3.79;67.38;101745.34;5096962;28;20575;-80
2021/04/25 01:02:26;;;;;;;6.53;3.20;;;;;;;3.78;66.77;101745.38;5096037;28;20204;-79
2021/04/25 01:04:53;;;;;;;9.83;3.50;;;;;;;3.75;67.41;101738.44;5095561;28;20227;-80
2021/04/25 01:07:19;;;;;;;6.80;3.00;;;;;;;3.72;67.02;101742.88;5089939;28;20200;-81
2021/04/25 01:09:46;;;;;;;9.20;3.50;;;;;;;3.70;67.56;101744.66;5094255;28;20202;-81
2021/04/25 01:12:12;;;;;;;6.70;3.30;;;;;;;3.67;68.01;101747.34;5095928;28;20207;-81
2021/04/25 01:14:38;;;;;;;7.17;3.87;;;;;;;3.64;67.83;101744.75;5090782;28;20654;-81
2021/04/25 01:17:04;;;;;;;7.77;3.50;;;;;;;3.60;67.74;101740.44;5090917;28;20604;-81
2021/04/25 01:19:30;;;;;;;8.57;3.17;;;;;;;3.57;67.59;101738.75;5089564;28;20197;-81
2021/04/25 01:21:57;;;;;;;8.37;3.37;;;;;;;3.54;67.94;101740.56;5088911;28;20228;-80
2021/04/25 01:24:23;;;;;;;10.07;3.83;;;;;;;3.53;67.87;101744.09;5096923;28;20634;-81
2021/04/25 01:26:49;;;;;;;4.87;3.17;;;;;;;3.49;68.03;101738.88;5092583;28;20616;-81
2021/04/25 01:29:15;;;;;;;8.10;3.20;;;;;;;3.47;68.92;101753.81;5093405;28;20228;-81
2021/04/25 01:31:41;;;;;;;6.50;3.40;;;;;;;3.46;68.27;101745.94;5097045;28;20277;-81
2021/04/25 01:34:08;;;;;;;7.87;3.40;;;;;;;3.42;68.76;101745.13;5096649;28;20212;-80
2021/04/25 01:36:34;;;;;;;6.97;3.70;;;;;;;3.39;68.14;101752.22;5096944;28;20249;-81
2021/04/25 01:39:01;;;;;;;8.67;2.83;;;;;;;3.35;68.98;101743.50;5085717;28;20669;-79
2021/04/25 01:41:27;;;;;;;6.63;3.33;;;;;;;3.35;68.41;101743.50;5095347;28;20686;-81
2021/04/25 01:43:53;;;;;;;8.13;3.40;;;;;;;3.33;68.80;101737.38;5079919;28;20292;-81
2021/04/25 01:46:19;;;;;;;6.10;2.80;;;;;;;3.31;68.78;101741.81;5087997;28;20242;-81
2021/04/25 01:48:45;;;;;;;8.03;3.30;;;;;;;3.31;68.96;101752.34;5084232;28;20235;-80
2021/04/25 01:51:12;;;;;;;8.73;2.93;;;;;;;3.28;68.88;101744.47;5085346;28;20248;-80
2021/04/25 01:53:38;;;;;;;9.03;3.37;;;;;;;3.27;68.93;101745.38;5084852;28;20205;-81
2021/04/25 01:56:05;;;;;;;7.10;3.27;;;;;;;3.25;69.55;101749.78;5084887;28;20204;-81
2021/04/25 01:58:31;;;;;;;11.20;3.40;;;;;;;3.23;69.00;101746.31;5094128;28;20193;-81
2021/04/25 02:00:58;;;;;;;8.50;3.70;;;;;;;3.20;69.17;101754.28;5095828;28;20642;-80
2021/04/25 02:03:25;;;;;;;8.27;2.97;;;;;;;3.18;69.44;101752.56;5084133;28;20336;-81
2021/04/25 02:05:51;;;;;;;6.90;3.33;;;;;;;3.13;69.23;101745.59;5085404;28;20212;-80
2021/04/25 02:08:17;;;;;;;11.23;3.47;;;;;;;3.11;69.06;101743.88;5094010;28;20224;-81
2021/04/25 02:10:44;;;;;;;10.97;4.43;;;;;;;3.08;69.76;101746.56;5085171;28;20216;-81
2021/04/25 02:13:12;;;;;;;7.27;3.17;;;;;;;3.07;69.36;101747.44;5092346;28;20200;-81
2021/04/25 02:15:38;;;;;;;7.30;3.30;;;;;;;3.03;69.47;101744.00;5084434;28;20225;-81
2021/04/25 02:18:05;;;;;;;8.83;3.20;;;;;;;3.01;69.79;101744.91;5093668;28;20645;-81
2021/04/25 02:20:33;;;;;;;7.00;2.90;;;;;;;2.99;69.41;101750.19;5089843;28;20758;-81
2021/04/25 02:22:59;;;;;;;6.30;3.27;;;;;;;2.97;69.73;101749.34;5091516;28;20218;-81
2021/04/25 02:25:26;;;;;;;7.73;3.33;;;;;;;2.95;70.30;101751.13;5089593;28;20212;-81
2021/04/25 02:27:52;;;;;;;6.27;2.80;;;;;;;2.94;69.46;101764.31;5090447;28;20596;-81
2021/04/25 02:30:21;;;;;;;5.70;3.40;;;;;;;2.93;70.32;101767.84;5095356;28;20228;-80
2021/04/25 02:32:47;;;;;;;6.70;3.27;;;;;;;2.92;70.18;101766.09;5096014;28;20205;-81
2021/04/25 02:35:15;;;;;;;8.87;3.30;;;;;;;2.88;70.35;101767.00;5093952;28;20197;-79
2021/04/25 02:37:41;;;;;;;8.57;3.40;;;;;;;2.86;69.71;101755.66;5088009;28;20273;-79
2021/04/25 02:40:11;;;;;;;7.30;3.37;;;;;;;2.83;70.10;101760.97;5089091;28;20273;-78
2021/04/25 02:42:37;;;;;;;8.77;2.60;;;;;;;2.81;69.85;101762.75;5088390;28;20263;-79
2021/04/25 02:45:04;;;;;;;8.00;3.20;;;;;;;2.78;70.43;101761.91;5096026;28;20204;-78
2021/04/25 02:47:31;;;;;;;8.77;3.33;;;;;;;2.76;70.26;101763.69;5098408;28;20665;-79
2021/04/25 02:49:57;;;;;;;5.90;2.80;;;;;;;2.74;70.25;101759.31;5095778;28;20325;-80
2021/04/25 02:52:26;;;;;;;6.33;2.57;;;;;;;2.72;70.28;101764.59;5094911;28;20200;-81
2021/04/25 02:54:52;;;;;;;6.90;2.93;;;;;;;2.71;70.76;101772.50;5094797;28;20204;-79
2021/04/25 02:57:18;;;;;;;6.37;2.90;;;;;;;2.69;69.98;101771.66;5097838;28;20223;-80
2021/04/25 02:59:44;;;;;;;9.73;3.07;;;;;;;2.65;70.26;101762.97;5094547;28;20200;-80
2021/04/25 03:02:10;;;;;;;7.43;3.50;;;;;;;2.65;70.33;101772.59;5089512;28;20209;-80
2021/04/25 03:04:37;;;;;;;10.30;3.17;;;;;;;2.61;70.77;101763.88;5092250;28;20208;-79
2021/04/25 03:07:03;;;;;;;9.53;3.10;;;;;;;2.61;70.79;101770.91;5087808;28;20208;-79
2021/04/25 03:09:29;;;;;;;4.73;2.97;;;;;;;2.57;70.84;101770.06;5079988;28;20686;-77
2021/04/25 03:11:55;;;;;;;6.60;3.10;;;;;;;2.56;70.87;101767.44;5096478;28;20224;-78
2021/04/25 03:14:21;;;;;;;5.77;3.20;;;;;;;2.54;70.55;101771.84;5090462;28;20286;-78
2021/04/25 03:16:47;;;;;;;9.00;3.10;;;;;;;2.50;71.06;101773.69;5085236;28;20214;-77
2021/04/25 03:19:13;;;;;;;11.37;3.33;;;;;;;2.49;70.97;101773.69;5085175;28;20251;-77
2021/04/25 03:21:40;;;;;;;12.03;2.97;;;;;;;2.47;70.80;101773.72;5086134;28;20266;-80
2021/04/25 03:24:07;;;;;;;10.27;3.10;;;;;;;2.46;71.19;101771.97;5090609;28;20254;-80
2021/04/25 03:26:33;;;;;;;8.37;3.30;;;;;;;2.44;70.89;101771.97;5087970;28;20208;-80
2021/04/25 03:28:59;;;;;;;7.73;3.10;;;;;;;2.43;71.05;101766.75;5090779;28;20224;-81
2021/04/25 03:31:25;;;;;;;6.47;2.80;;;;;;;2.41;71.29;101769.38;5092552;28;20289;-81
2021/04/25 03:33:51;;;;;;;8.90;3.50;;;;;;;2.41;71.56;101765.88;5085945;28;20296;-82
2021/04/25 03:36:18;;;;;;;7.30;3.23;;;;;;;2.40;71.16;101767.63;5090983;28;20555;-82
2021/04/25 03:38:45;;;;;;;7.07;3.30;;;;;;;2.38;71.28;101765.91;5092758;28;20568;-81
2021/04/25 03:41:10;;;;;;;7.03;2.87;;;;;;;2.37;71.26;101770.31;5089980;28;20265;-79
2021/04/25 03:43:37;;;;;;;7.87;3.20;;;;;;;2.35;71.30;101760.69;5090594;28;20208;-81
2021/04/25 03:46:03;;;;;;;7.77;3.17;;;;;;;2.34;71.65;101767.69;5077559;28;20201;-82
2021/04/25 03:48:29;;;;;;;5.77;2.70;;;;;;;2.34;71.46;101770.34;5094904;28;20224;-82
2021/04/25 03:50:55;;;;;;;5.20;2.93;;;;;;;2.32;71.92;101766.88;5090886;28;20221;-82
2021/04/25 03:53:21;;;;;;;8.93;3.47;;;;;;;2.31;71.88;101772.16;5097862;28;20213;-81
2021/04/25 03:55:48;;;;;;;9.73;4.17;;;;;;;2.31;71.66;101772.16;5080972;28;20205;-82
2021/04/25 03:58:14;;;;;;;7.90;3.87;;;;;;;2.29;71.46;101773.91;5091157;28;20192;-82
2021/04/25 04:00:40;;;;;;;8.33;3.53;;;;;;;2.27;71.34;101771.31;5096401;28;20224;-82
2021/04/25 04:03:06;;;;;;;8.87;3.57;;;;;;;2.29;71.72;101779.19;5097288;28;20247;-82
2021/04/25 04:05:32;;;;;;;4.90;3.00;;;;;;;2.27;71.72;101771.31;5091733;28;20207;-81
2021/04/25 04:07:58;;;;;;;7.40;3.03;;;;;;;2.26;72.02;101772.19;5089815;28;20319;-81
2021/04/25 04:10:24;;;;;;;7.57;3.20;;;;;;;2.26;71.91;101776.56;5094114;28;20584;-81
2021/04/25 04:12:51;;;;;;;6.50;3.37;;;;;;;2.25;71.87;101774.84;5096112;28;20208;-81
2021/04/25 04:15:17;;;;;;;9.83;4.27;;;;;;;2.24;72.10;101775.72;5085829;28;20650;-81
2021/04/25 04:17:43;;;;;;;6.17;3.47;;;;;;;2.24;71.89;101784.47;5086124;28;20607;-81
2021/04/25 04:20:10;;;;;;;8.17;3.60;;;;;;;2.24;71.85;101781.84;5097144;28;20255;-82
2021/04/25 04:22:36;;;;;;;8.80;3.70;;;;;;;2.25;72.28;101787.97;5090733;28;20215;-81
2021/04/25 04:25:04;;;;;;;9.87;3.43;;;;;;;2.24;72.12;101784.47;5091743;28;20208;-81
2021/04/25 04:27:30;;;;;;;7.67;3.07;;;;;;;2.25;72.28;101794.09;5083445;28;20204;-82
2021/04/25 04:29:56;;;;;;;7.47;3.20;;;;;;;2.24;72.14;101787.09;5089668;28;20224;-81
2021/04/25 04:32:22;;;;;;;9.40;3.87;;;;;;;2.24;72.40;101780.97;5091674;28;20572;-81
2021/04/25 04:34:48;;;;;;;11.73;3.77;;;;;;;2.24;72.58;101783.59;5090221;28;20565;-80
2021/04/25 04:37:14;;;;;;;6.37;3.47;;;;;;;2.26;72.44;101779.22;5097752;28;20618;-80
2021/04/25 04:39:40;;;;;;;6.30;3.57;;;;;;;2.27;72.25;101779.19;5088498;28;20201;-81
2021/04/25 04:42:07;;;;;;;8.10;3.50;;;;;;;2.28;72.64;101782.69;5090351;28;20230;-81
2021/04/25 04:44:33;;;;;;;5.03;2.93;;;;;;;2.29;72.65;101779.19;5085880;28;20211;-82
2021/04/25 04:47:00;;;;;;;7.40;3.47;;;;;;;2.30;72.61;101780.91;5086726;28;20201;-81
2021/04/25 04:49:26;;;;;;;7.93;3.50;;;;;;;2.29;72.88;101779.19;5092044;28;20228;-81
2021/04/25 04:51:52;;;;;;;11.00;4.70;;;;;;;2.31;73.13;101777.41;5091820;28;20240;-81
2021/04/25 04:54:18;;;;;;;10.53;6.50;;;;;;;2.32;72.72;101773.91;5091126;28;20212;-81
2021/04/25 04:56:44;;;;;;;10.40;4.07;;;;;;;2.34;73.00;101772.09;5093556;28;20215;-81
2021/04/25 04:59:10;;;;;;;10.00;4.53;;;;;;;2.35;72.67;101769.44;5088806;28;20208;-81
2021/04/25 05:01:36;;;;;;;7.93;3.93;;;;;;;2.37;72.68;101779.94;5089051;28;20259;-81
2021/04/25 05:04:04;;;;;;;9.70;4.07;;;;;;;2.37;72.56;101772.94;5083293;28;20234;-81
2021/04/25 05:06:30;;;;;;;6.67;4.00;;;;;;;2.41;72.64;101776.41;5091477;28;20207;-81
2021/04/25 05:08:56;;;;;;;11.40;3.83;;;;;;;2.42;72.86;101788.66;5083422;28;20311;-80
2021/04/25 05:11:22;;;;;;;11.00;4.47;;;;;;;2.43;72.86;101782.50;5081294;28;20315;-81
2021/04/25 05:13:48;;;;;;;11.17;3.87;;;;;;;2.46;72.44;101786.88;5093737;28;20223;-81
2021/04/25 05:16:14;;;;;;;6.27;3.53;;;;;;;2.47;72.57;101778.09;5089314;28;20197;-81
2021/04/25 05:18:42;;;;;;;9.47;3.80;;;;;;;2.50;72.94;101788.59;5095953;28;20204;-81
2021/04/25 05:21:09;;;;;;;6.40;3.30;;;;;;;2.51;72.81;101791.16;5091191;28;20233;-81
2021/04/25 05:23:35;;;;;;;6.27;3.53;;;;;;;2.55;73.16;101790.25;5083466;28;20208;-80
2021/04/25 05:26:01;;;;;;;7.30;3.57;;;;;;;2.58;72.91;101792.84;5083546;28;20220;-80
2021/04/25 05:28:27;;;;;;;7.00;3.63;;;;;;;2.64;72.45;101787.50;5095544;28;20666;-80
2021/04/25 05:30:53;;;;;;;8.13;3.63;;;;;;;2.70;72.44;101790.03;5095456;28;20699;-80
2021/04/25 05:33:19;;;;;;;9.13;3.93;;;;;;;2.75;72.63;101790.88;5083451;28;20287;-81
2021/04/25 05:35:45;;;;;;;10.57;3.40;;;;;;;2.81;72.67;101796.94;5092901;28;20206;-81
2021/04/25 05:38:13;;;;;;;8.37;3.80;;;;;;;2.88;72.89;101796.81;5094406;28;20561;-81
2021/04/25 05:40:39;;;;;;;9.67;3.93;;;;;;;2.95;72.57;101795.88;5086235;28;20236;-81
2021/04/25 05:43:05;;;;;;;7.70;3.43;;;;;;;3.05;72.21;101799.22;5090252;28;20608;-80
2021/04/25 05:45:31;;;;;;;5.43;3.53;;;;;;;3.10;72.17;101800.91;5093468;28;20206;-81
2021/04/25 05:47:58;;;;;;;10.87;4.97;;;;;;;3.14;72.88;101799.97;5089479;28;20582;-79
2021/04/25 05:50:26;;;;;;;5.53;3.77;;;;;;;3.18;72.06;101800.81;5079609;28;20225;-80
2021/04/25 05:52:53;;;;;;;8.10;3.70;;;;;;;3.22;72.49;101801.66;5078414;28;20215;-81
2021/04/25 05:55:20;;;;;;;9.43;4.00;;;;;;;3.28;72.36;101797.13;5079103;28;20200;-81
2021/04/25 05:57:46;;;;;;;10.70;4.57;;;;;;;3.38;72.05;101804.03;5087727;28;20261;-81
2021/04/25 06:00:15;;;;;;;7.30;3.93;;;;;;;3.49;72.95;101806.47;5091144;28;20285;-81
2021/04/25 06:02:41;;;;;;;5.60;3.43;;;;;;;3.63;72.52;101811.50;5084380;28;20200;-80
2021/04/25 06:05:09;;;;;;;7.23;3.30;;;;;;;3.79;72.94;101805.09;5091275;28;20204;-81
2021/04/25 06:07:35;;;;;;;6.63;3.00;;;;;;;3.98;72.58;101808.28;5088915;28;20197;-81
2021/04/25 06:10:01;;;;;;;7.30;4.20;;;;;;;4.14;72.83;101804.47;5092302;28;20302;-81
2021/04/25 06:12:28;;;;;;;6.93;3.53;;;;;;;4.31;72.35;101796.25;5091947;28;20204;-80
2021/04/25 06:14:54;;;;;;;6.47;3.23;;;;;;;4.46;72.17;101803.88;5092898;28;20204;-81
2021/04/25 06:17:20;;;;;;;9.13;3.40;;;;;;;4.58;71.41;101802.75;5095698;28;20222;-81
2021/04/25 06:19:46;;;;;;;8.47;3.60;;;;;;;4.65;70.73;101807.00;5088699;28;20205;-82
2021/04/25 06:22:14;;;;;;;6.00;3.00;;;;;;;4.68;70.52;101805.16;5090334;28;20212;-81
2021/04/25 06:24:40;;;;;;;7.80;2.87;;;;;;;4.71;70.19;101804.22;5090438;28;20200;-81
2021/04/25 06:27:06;;;;;;;8.23;2.23;;;;;;;4.73;69.31;101797.16;5092950;28;20576;-80
2021/04/25 06:29:33;;;;;;;8.47;2.60;;;;;;;4.71;68.13;101806.88;5093146;28;20703;-81
2021/04/25 06:31:59;;;;;;;4.17;2.70;;;;;;;4.71;68.19;101809.50;5094802;28;20589;-81
2021/04/25 06:34:25;;;;;;;7.60;2.33;;;;;;;4.72;67.31;101812.13;5084395;28;20209;-81
2021/04/25 06:36:51;;;;;;;7.67;2.63;;;;;;;4.73;66.93;101808.59;5093814;28;20670;-81
2021/04/25 06:39:17;;;;;;;6.57;2.77;;;;;;;4.76;66.91;101811.16;5094033;28;20210;-80
2021/04/25 06:41:43;;;;;;;5.83;2.10;;;;;;;4.78;66.01;101805.84;5085718;28;20225;-81
2021/04/25 06:44:09;;;;;;;7.30;2.23;;;;;;;4.78;65.84;101811.13;5086711;28;20219;-81
2021/04/25 06:46:37;;;;;;;8.67;3.20;;;;;;;4.79;65.95;101813.75;5095428;28;20299;-81
2021/04/25 06:49:04;;;;;;;5.43;2.30;;;;;;;4.82;65.86;101821.59;5094876;28;20640;-81
2021/04/25 06:51:30;;;;;;;6.27;2.13;;;;;;;4.84;65.34;101818.91;5096664;28;20224;-81
2021/04/25 06:53:57;;;;;;;9.63;2.30;;;;;;;4.84;64.85;101819.78;5094901;28;20322;-81
2021/04/25 06:56:23;;;;;;;5.73;2.13;;;;;;;4.86;65.05;101817.97;5094081;28;20561;-80
2021/04/25 06:58:49;;;;;;;6.90;2.23;;;;;;;4.88;65.01;101824.09;5090204;28;20208;-81
2021/04/25 07:01:15;;;;;;;3.83;2.17;;;;;;;4.92;64.07;101824.03;5094538;28;20228;-81
2021/04/25 07:03:42;;;;;;;10.23;2.20;;;;;;;4.97;64.12;101816.88;5087631;28;20207;-81
2021/04/25 07:06:08;;;;;;;5.37;2.13;;;;;;;5.00;63.88;101819.47;5095626;28;20200;-81
2021/04/25 07:08:34;;;;;;;6.40;1.70;;;;;;;5.01;64.00;101823.84;5094774;28;20387;-84
2021/04/25 07:11:00;;;;;;;4.73;1.80;;;;;;;5.04;63.41;101823.75;5095548;28;20234;-81
2021/04/25 07:13:27;;;;;;;4.93;2.37;;;;;;;5.07;63.86;101823.69;5097034;28;20746;-81
2021/04/25 07:15:53;;;;;;;5.33;2.13;;;;;;;5.09;62.83;101821.91;5097288;28;20261;-79
2021/04/25 07:18:20;;;;;;;3.53;1.60;;;;;;;5.12;63.00;101821.84;5087226;28;20584;-79
2021/04/25 07:20:52;;;;;;;8.17;2.00;;;;;;;5.15;63.02;101827.91;5080855;28;20231;-79
2021/04/25 07:23:19;;;;;;;4.00;1.80;;;;;;;5.19;62.88;101823.44;5088557;28;20211;-80
2021/04/25 07:25:48;;;;;;;8.40;2.03;;;;;;;5.24;62.89;101826.81;5099018;28;20284;-79
2021/04/25 07:28:14;;;;;;;5.20;1.60;;;;;;;5.29;62.57;101824.09;5082912;28;20201;-79
2021/04/25 07:30:40;;;;;;;4.23;1.67;;;;;;;5.31;62.04;101820.50;5083879;28;20224;-80
2021/04/25 07:33:06;;;;;;;3.00;1.80;;;;;;;5.33;61.80;101825.78;5098935;28;20208;-80
2021/04/25 07:35:32;;;;;;;6.73;1.90;;;;;;;5.35;61.33;101831.88;5095632;28;20782;-82
2021/04/25 07:38:02;;;;;;;4.43;1.93;;;;;;;5.36;61.63;101826.56;5095926;28;20208;-80
2021/04/25 07:40:28;;;;;;;6.40;1.80;;;;;;;5.42;61.41;101836.09;5097671;28;20251;-81
2021/04/25 07:42:54;;;;;;;6.67;2.00;;;;;;;5.46;61.20;101832.50;5096941;28;20204;-81
2021/04/25 07:45:20;;;;;;;5.70;1.87;;;;;;;5.48;61.29;101836.84;5096820;28;20281;-81
2021/04/25 07:47:46;;;;;;;6.17;1.97;;;;;;;5.51;60.87;101820.06;5095338;28;20243;-80
2021/04/25 07:50:14;;;;;;;5.53;2.13;;;;;;;5.55;60.93;101822.56;5098211;28;20224;-81
2021/04/25 07:52:40;;;;;;;5.93;1.60;;;;;;;5.60;60.83;101833.03;5095323;28;20197;-81
2021/04/25 07:55:09;;;;;;;4.90;1.60;;;;;;;5.65;60.70;101830.28;5093634;28;20364;-82
2021/04/25 07:57:36;;;;;;;5.73;1.30;;;;;;;5.68;60.65;101819.66;5074634;28;20690;-81
2021/04/25 08:00:05;;;;;;;6.33;1.47;;;;;;;5.72;59.88;101829.25;5097113;28;20263;-80
2021/04/25 08:02:31;;;;;;;4.83;1.70;;;;;;;5.74;59.67;101822.97;5095817;28;20684;-80
2021/04/25 08:04:57;;;;;;;7.23;1.77;;;;;;;5.80;59.59;101824.63;5100740;28;20291;-80
2021/04/25 08:07:23;;;;;;;5.83;1.53;;;;;;;5.87;59.75;101829.72;5101063;28;20291;-81
2021/04/25 08:09:49;;;;;;;4.40;1.20;;;;;;;5.93;58.97;101824.28;5099920;28;20608;-80
2021/04/25 08:12:16;;;;;;;3.40;1.50;;;;;;;5.99;58.98;101833.00;5091528;28;20254;-78
2021/04/25 08:14:42;;;;;;;8.23;1.60;;;;;;;6.03;58.38;101827.59;5089137;28;20204;-79
2021/04/25 08:17:09;;;;;;;3.80;1.20;;;;;;;6.06;58.29;101832.81;5090651;28;20204;-77
2021/04/25 08:19:35;;;;;;;5.03;1.30;;;;;;;6.10;57.83;101831.78;5092436;28;20204;-80
2021/04/25 08:22:01;;;;;;;2.37;1.23;;;;;;;6.17;57.14;101838.66;5098537;28;20224;-79
2021/04/25 08:24:27;;;;;;;5.63;1.27;;;;;;;6.23;56.90;101835.88;5097106;28;20211;-81
2021/04/25 08:26:53;;;;;;;4.97;1.27;;;;;;;6.31;56.30;101829.50;5100896;28;20204;-78
2021/04/25 08:29:20;;;;;;;4.87;1.27;;;;;;;6.38;55.86;101841.66;5101756;28;20323;-79
2021/04/25 08:31:46;;;;;;;2.27;1.30;;;;;;;6.42;55.51;101838.91;5097073;28;20232;-78
2021/04/25 08:34:12;;;;;;;4.23;1.40;;;;;;;6.53;54.98;101844.75;5099383;28;20210;-79
2021/04/25 08:36:38;;;;;;;2.80;1.30;;;;;;;6.66;55.15;101837.31;5096418;28;20200;-80
2021/04/25 08:39:05;;;;;;;5.13;1.40;;;;;;;6.78;54.09;101837.00;5095470;28;20199;-80
2021/04/25 08:41:31;;;;;;;4.50;1.40;;;;;;;6.88;53.84;101849.06;5093193;28;20231;-80
2021/04/25 08:44:01;;;;;;;3.70;1.30;;;;;;;6.96;53.23;101839.13;5095985;28;20211;-79
2021/04/25 08:46:29;;;;;;;3.87;1.53;;;;;;;7.03;53.03;101836.25;5094612;28;20196;-80
2021/04/25 08:48:58;;;;;;;3.67;1.60;;;;;;;7.13;52.94;101841.25;5094277;28;20227;-79
2021/04/25 08:51:24;;;;;;;6.13;1.43;;;;;;;7.23;52.54;101839.19;5096467;28;20215;-79
2021/04/25 08:53:51;;;;;;;5.17;1.40;;;;;;;7.34;52.38;101845.03;5093907;28;20212;-79
2021/04/25 08:56:17;;;;;;;3.00;1.30;;;;;;;7.40;51.97;101842.19;5096592;28;20551;-79
2021/04/25 08:58:44;;;;;;;3.10;1.60;;;;;;;7.43;51.52;101843.88;5096702;28;20646;-79
2021/04/25 09:01:11;;;;;;;7.50;1.43;;;;;;;7.52;51.69;101833.88;5093592;28;20236;-80
2021/04/25 09:03:38;;;;;;;4.27;2.20;;;;;;;7.65;51.40;101843.16;5093460;28;20216;-80
2021/04/25 09:06:07;;;;;;;7.50;2.20;;;;;;;7.82;51.51;101833.78;5096245;28;20579;-80
2021/04/25 09:08:44;;;;;;;6.63;2.10;;;;;;;7.95;50.85;101841.25;5097718;28;20319;-80
2021/04/25 09:11:24;;;;;;;3.20;1.97;;;;;;;8.03;50.74;101830.41;5087727;28;20219;-79
2021/04/25 09:14:13;;;;;;;3.63;1.93;;;;;;;8.07;50.54;101829.34;5095714;28;20283;-80
2021/04/25 09:16:39;;;;;;;7.73;2.10;;;;;;;8.09;50.27;101830.19;5094521;28;20201;-80
2021/04/25 09:19:06;;;;;;;7.70;1.90;;;;;;;8.15;50.85;101829.97;5095607;28;20681;-80
2021/04/25 09:21:32;;;;;;;3.80;1.37;;;;;;;8.24;50.33;101820.84;5089956;28;20231;-79
2021/04/25 09:24:23;;;;;;;2.97;1.30;;;;;;;8.37;49.62;101821.31;5095904;28;20204;-79
2021/04/25 09:26:50;;;;;;;6.57;1.80;;;;;;;8.50;49.58;101817.28;5093845;28;20228;-79
2021/04/25 09:29:17;;;;;;;7.60;1.77;;;;;;;8.64;49.62;101823.81;5088117;28;20228;-78
2021/04/25 09:31:43;;;;;;;4.63;1.40;;;;;;;8.77;48.34;101826.91;5092213;28;20228;-79
2021/04/25 09:34:12;;;;;;;5.07;2.20;;;;;;;8.89;48.36;101822.91;5096106;28;20208;-79
2021/04/25 09:36:39;;;;;;;2.77;1.50;;;;;;;9.01;48.21;101817.13;5095566;28;20211;-79
2021/04/25 09:39:10;;;;;;;4.43;1.60;;;;;;;9.13;48.25;101821.13;5095737;28;20204;-81
2021/04/25 09:41:36;;;;;;;3.60;1.30;;;;;;;9.24;47.64;101817.09;5096339;28;20224;-81
2021/04/25 09:44:03;;;;;;;3.07;1.40;;;;;;;9.33;46.95;101811.41;5096565;28;20214;-80
2021/04/25 09:46:53;;;;;;;3.43;1.87;;;;;;;9.45;46.70;101814.53;5099293;28;20264;-80
2021/04/25 09:49:42;;;;;;;2.37;1.20;;;;;;;9.58;45.34;101805.13;5098544;28;20263;-80
2021/04/25 09:52:09;;;;;;;4.20;1.43;;;;;;;9.64;45.89;101810.19;5093637;28;20763;-79
2021/04/25 09:54:36;;;;;;;6.03;1.50;;;;;;;9.70;45.27;101810.78;5092884;28;20206;-78
2021/04/25 09:57:03;;;;;;;4.07;1.70;;;;;;;9.71;45.38;101801.88;5091681;28;20196;-78
2021/04/25 09:59:29;;;;;;;3.27;1.00;;;;;;;9.73;44.82;101802.69;5094156;28;20648;-79
2021/04/25 10:02:06;;;;;;;4.60;1.70;;;;;;;9.79;45.14;101798.06;5091547;28;21495;-79
2021/04/25 10:04:34;;;;;;;2.87;1.40;;;;;;;9.82;44.12;101795.28;5091109;28;20210;-80
2021/04/25 10:07:06;;;;;;;3.73;1.30;;;;;;;9.89;44.37;101804.72;5090669;28;20820;-80
2021/04/25 10:09:33;;;;;;;2.93;1.37;;;;;;;9.90;42.77;101796.66;5087500;28;20216;-80
2021/04/25 10:12:02;;;;;;;3.57;1.70;;;;;;;9.95;42.74;101791.16;5089739;28;20239;-79
2021/04/25 10:14:30;;;;;;;4.03;1.63;;;;;;;10.02;42.99;101790.84;5089934;28;20192;-80
2021/04/25 10:16:58;;;;;;;3.43;1.73;;;;;;;10.18;42.70;101791.03;5090229;28;20511;-79
2021/04/25 10:19:24;;;;;;;3.73;1.50;;;;;;;10.31;41.96;101788.72;5090382;28;20567;-78
2021/04/25 10:21:51;;;;;;;2.97;1.63;;;;;;;10.38;41.99;101799.06;5090745;28;20306;-79
2021/04/25 10:24:20;;;;;;;4.73;1.53;;;;;;;10.40;41.20;101801.63;5092234;28;20215;-80
2021/04/25 10:26:59;;;;;;;4.27;1.83;;;;;;;10.46;41.50;101795.16;5090825;28;20205;-79
2021/04/25 10:29:30;;;;;;;3.33;1.40;;;;;;;10.52;41.57;101797.56;5092454;28;20273;-81
2021/04/25 10:31:59;;;;;;;3.63;1.47;;;;;;;10.56;41.15;101796.50;5091358;28;20230;-80
2021/04/25 10:34:25;;;;;;;4.77;1.70;;;;;;;10.62;40.25;101801.53;5090979;28;20206;-80
2021/04/25 10:37:00;;;;;;;4.13;1.97;;;;;;;10.69;39.60;101787.00;5091831;28;20204;-79
2021/04/25 10:39:44;;;;;;;3.67;1.47;;;;;;;10.70;39.61;101796.72;5092653;28;20200;-79
2021/04/25 10:42:37;;;;;;;4.10;1.80;;;;;;;10.72;39.68;101794.88;5095194;28;20254;-79
2021/04/25 10:45:17;;;;;;;3.57;1.60;;;;;;;10.76;39.76;101794.63;5091894;28;20832;-80
2021/04/25 10:47:46;;;;;;;4.13;2.03;;;;;;;10.87;40.30;101791.50;5095023;28;20654;-80
2021/04/25 10:50:41;;;;;;;3.07;1.90;;;;;;;10.99;40.04;101798.03;5093789;28;20242;-79
2021/04/25 10:53:28;;;;;;;3.17;1.70;;;;;;;11.08;40.19;101793.16;5094377;28;20203;-80
2021/04/25 10:56:30;;;;;;;4.20;1.43;;;;;;;11.20;40.32;101793.50;5095238;28;20201;-79
2021/04/25 10:59:28;;;;;;;3.67;1.80;;;;;;;11.21;39.85;101792.56;5091466;28;20208;-80
2021/04/25 11:01:56;;;;;;;5.07;2.03;;;;;;;11.23;39.88;101796.03;5086579;28;20311;-79
2021/04/25 11:04:53;;;;;;;3.77;1.83;;;;;;;11.25;39.59;101794.16;5094005;28;20335;-79
2021/04/25 11:07:40;;;;;;;4.60;1.70;;;;;;;11.23;39.68;101790.69;5098397;28;20239;-80
2021/04/25 11:10:07;;;;;;;3.63;1.97;;;;;;;11.22;39.66;101789.81;5092131;28;20236;-79
2021/04/25 11:12:45;;;;;;;5.83;1.87;;;;;;;11.26;39.13;101798.56;5094101;28;20291;-80
2021/04/25 11:15:51;;;;;;;3.27;1.83;;;;;;;11.25;38.98;101791.50;5090187;28;21365;-80
2021/04/25 11:18:49;;;;;;;4.07;2.27;;;;;;;11.23;39.13;101788.88;5093419;28;20207;-79
2021/04/25 11:21:46;;;;;;;4.53;2.33;;;;;;;11.30;39.54;101789.44;5094137;28;20224;-80
2021/04/25 11:24:45;;;;;;;3.67;2.00;;;;;;;11.40;39.00;101785.41;5093372;28;20672;-78
2021/04/25 11:27:34;;;;;;;6.07;1.90;;;;;;;11.43;38.55;101780.78;5097234;28;20646;-80
2021/04/25 11:30:02;;;;;;;3.37;2.27;;;;;;;11.45;38.32;101783.38;5095523;28;20231;-79
2021/04/25 11:32:38;;;;;;;3.87;1.77;;;;;;;11.46;38.29;101777.13;5093082;28;20628;-79
2021/04/25 11:35:13;;;;;;;4.23;2.33;;;;;;;11.48;38.42;101780.53;5096349;28;20193;-79
2021/04/25 11:37:42;;;;;;;4.70;2.13;;;;;;;11.57;38.55;101780.09;5095595;28;20751;-79